createdAt,value
2018-02-07T00:02:21.175Z,27.50
2018-02-07T00:04:47.791Z,27.65
2018-02-07T00:07:14.437Z,26.60
2018-02-07T00:09:40.828Z,25.65
2018-02-07T00:12:07.199Z,25.25
2018-02-07T00:14:33.645Z,27.45
2018-02-07T00:17:00.055Z,27.42
2018-02-07T00:19:26.441Z,26.35
2018-02-07T00:21:53.568Z,28.95
2018-02-07T00:24:19.982Z,24.40
2018-02-07T00:26:46.460Z,29.98
2018-02-07T00:29:13.865Z,26.00
2018-02-07T00:31:40.230Z,29.25
2018-02-07T00:34:06.632Z,28.87
2018-02-07T00:36:33.062Z,32.83
2018-02-07T00:38:59.599Z,34.80
2018-02-07T00:41:26.676Z,33.03
2018-02-07T00:43:53.033Z,34.10
2018-02-07T00:46:20.139Z,33.63
2018-02-07T00:48:46.527Z,36.08
2018-02-07T00:51:13.899Z,35.75
2018-02-07T00:53:40.470Z,38.22
2018-02-07T00:56:08.110Z,36.50
2018-02-07T00:58:34.749Z,37.72
2018-02-07T01:01:01.284Z,33.50
2018-02-07T01:03:27.921Z,34.95
2018-02-07T01:05:55.339Z,34.72
2018-02-07T01:08:23.438Z,36.33
2018-02-07T01:10:49.815Z,37.63
2018-02-07T01:13:17.169Z,35.28
2018-02-07T01:15:43.555Z,32.30
2018-02-07T01:18:10.207Z,34.80
2018-02-07T01:20:36.582Z,33.30
2018-02-07T01:23:03.893Z,33.85
2018-02-07T01:25:30.533Z,34.22
2018-02-07T01:27:57.170Z,35.88
2018-02-07T01:30:23.705Z,34.15
2018-02-07T01:32:50.239Z,33.38
2018-02-07T01:35:16.606Z,32.60
2018-02-07T01:37:44.129Z,34.67
2018-02-07T01:40:10.768Z,31.27
2018-02-07T01:42:37.406Z,35.70
2018-02-07T01:45:03.839Z,31.65
2018-02-07T01:47:30.204Z,33.22
2018-02-07T01:49:56.568Z,33.63
2018-02-07T01:52:23.754Z,34.42
2018-02-07T01:54:50.142Z,33.30
2018-02-07T01:57:17.287Z,34.85
2018-02-07T01:59:44.590Z,37.25
2018-02-07T02:02:11.125Z,34.75
2018-02-07T02:04:38.474Z,36.03
2018-02-07T02:07:04.886Z,34.40
2018-02-07T02:09:31.450Z,32.95
2018-02-07T02:11:57.863Z,33.55
2018-02-07T02:14:25.189Z,36.03
2018-02-07T02:16:52.316Z,35.13
2018-02-07T02:19:18.923Z,31.60
2018-02-07T02:21:45.340Z,32.47
2018-02-07T02:24:11.968Z,31.67
2018-02-07T02:26:38.994Z,33.00
2018-02-07T02:29:06.051Z,30.08
2018-02-07T02:31:33.099Z,33.30
2018-02-07T02:34:00.120Z,30.77
2018-02-07T02:36:40.102Z,34.50
2018-02-07T02:39:07.143Z,33.13
2018-02-07T02:41:34.191Z,33.28
2018-02-07T02:44:01.215Z,36.53
2018-02-07T02:46:27.567Z,33.65
2018-02-07T02:48:54.594Z,33.42
2018-02-07T02:51:20.884Z,33.13
2018-02-07T02:53:47.191Z,35.80
2018-02-07T02:56:13.479Z,33.20
2018-02-07T02:58:39.758Z,32.60
2018-02-07T03:01:06.042Z,33.03
2018-02-07T03:03:32.377Z,34.35
2018-02-07T03:05:59.455Z,32.53
2018-02-07T03:08:26.469Z,31.95
2018-02-07T03:10:52.742Z,31.33
2018-02-07T03:13:19.074Z,31.25
2018-02-07T03:15:45.346Z,33.92
2018-02-07T03:18:11.684Z,34.05
2018-02-07T03:20:38.011Z,35.70
2018-02-07T03:23:04.286Z,37.13
2018-02-07T03:25:31.326Z,36.90
2018-02-07T03:27:58.346Z,33.22
2018-02-07T03:30:25.402Z,34.42
2018-02-07T03:32:51.680Z,34.60
2018-02-07T03:35:17.985Z,35.83
2018-02-07T03:37:45.015Z,36.72
2018-02-07T03:40:12.027Z,33.90
2018-02-07T03:42:38.335Z,34.58
2018-02-07T03:45:04.615Z,33.30
2018-02-07T03:47:32.379Z,34.15
2018-02-07T03:49:58.714Z,34.45
2018-02-07T03:52:24.998Z,33.42
2018-02-07T03:54:51.318Z,36.90
2018-02-07T03:57:17.602Z,33.67
2018-02-07T03:59:43.882Z,34.33
2018-02-07T04:02:10.166Z,34.25
2018-02-07T04:04:37.192Z,33.70
2018-02-07T04:07:03.534Z,37.25
2018-02-07T04:09:29.811Z,38.33
2018-02-07T04:11:56.119Z,34.97
2018-02-07T04:14:23.169Z,34.05
2018-02-07T04:16:50.196Z,34.22
2018-02-07T04:19:17.242Z,35.00
2018-02-07T04:21:43.521Z,35.38
2018-02-07T04:24:09.803Z,34.35
2018-02-07T04:26:36.814Z,32.75
2018-02-07T04:29:03.099Z,36.65
2018-02-07T04:31:30.169Z,36.63
2018-02-07T04:33:57.486Z,35.30
2018-02-07T04:36:24.517Z,35.72
2018-02-07T04:38:50.816Z,36.50
2018-02-07T04:41:17.102Z,35.10
2018-02-07T04:43:44.185Z,38.78
2018-02-07T04:46:10.459Z,38.10
2018-02-07T04:48:36.775Z,39.30
2018-02-07T04:51:03.044Z,34.83
2018-02-07T04:53:30.071Z,37.83
2018-02-07T04:55:56.372Z,35.85
2018-02-07T04:58:22.733Z,34.05
2018-02-07T05:00:49.004Z,36.70
2018-02-07T05:03:15.286Z,34.33
2018-02-07T05:05:41.582Z,33.13
2018-02-07T05:08:07.870Z,37.72
2018-02-07T05:10:35.892Z,38.22
2018-02-07T05:13:02.212Z,35.08
2018-02-07T05:15:28.497Z,34.08
2018-02-07T05:17:55.522Z,35.78
2018-02-07T05:20:21.818Z,37.70
2018-02-07T05:22:48.087Z,36.58
2018-02-07T05:25:14.368Z,37.30
2018-02-07T05:27:40.648Z,35.30
2018-02-07T05:30:06.935Z,36.13
2018-02-07T05:32:33.256Z,31.58
2018-02-07T05:34:59.528Z,33.72
2018-02-07T05:37:25.811Z,35.85
2018-02-07T05:39:52.082Z,35.58
2018-02-07T05:42:18.362Z,33.50
2018-02-07T05:44:44.651Z,32.97
2018-02-07T05:47:10.918Z,33.92
2018-02-07T05:49:37.226Z,30.40
2018-02-07T05:52:04.243Z,31.48
2018-02-07T05:54:30.527Z,33.63
2018-02-07T05:56:56.826Z,34.33
2018-02-07T05:59:23.842Z,31.90
2018-02-07T06:01:50.138Z,34.78
2018-02-07T06:04:16.436Z,36.78
2018-02-07T06:06:43.451Z,35.03
2018-02-07T06:09:10.369Z,35.50
2018-02-07T06:11:38.015Z,35.72
2018-02-07T06:14:04.299Z,36.90
2018-02-07T06:16:30.576Z,36.72
2018-02-07T06:18:56.866Z,35.33
2018-02-07T06:21:23.163Z,35.03
2018-02-07T06:23:49.476Z,34.10
2018-02-07T06:26:16.791Z,33.33
2018-02-07T06:28:43.804Z,31.70
2018-02-07T06:31:10.097Z,35.10
2018-02-07T06:33:36.409Z,34.97
2018-02-07T06:36:03.471Z,34.38
2018-02-07T06:38:29.742Z,31.12
2018-02-07T06:40:56.010Z,33.45
2018-02-07T06:43:23.031Z,32.38
2018-02-07T06:45:49.306Z,34.22
2018-02-07T06:48:15.627Z,30.95
2018-02-07T06:50:41.907Z,31.90
2018-02-07T06:53:08.197Z,30.75
2018-02-07T06:55:34.513Z,33.95
2018-02-07T06:58:01.539Z,34.65
2018-02-07T07:00:27.827Z,35.50
2018-02-07T07:02:54.124Z,35.00
2018-02-07T07:05:20.403Z,33.42
2018-02-07T07:07:46.678Z,32.70
2018-02-07T07:10:13.702Z,34.15
2018-02-07T07:12:39.991Z,32.90
2018-02-07T07:15:06.311Z,31.48
2018-02-07T07:17:32.599Z,32.03
2018-02-07T07:19:58.891Z,33.92
2018-02-07T07:22:25.182Z,33.58
2018-02-07T07:24:52.198Z,35.17
2018-02-07T07:27:18.494Z,35.15
2018-02-07T07:29:44.770Z,38.35
2018-02-07T07:32:11.860Z,36.92
2018-02-07T07:34:38.119Z,34.60
2018-02-07T07:37:04.403Z,36.42
2018-02-07T07:39:31.704Z,43.33
2018-02-07T07:41:57.986Z,41.85
2018-02-07T07:44:24.276Z,32.53
2018-02-07T07:46:50.566Z,32.17
2018-02-07T07:49:16.853Z,34.75
2018-02-07T07:51:44.931Z,32.38
2018-02-07T07:54:11.966Z,31.62
2018-02-07T07:56:38.992Z,33.38
2018-02-07T07:59:05.279Z,32.08
2018-02-07T08:01:31.558Z,32.97
2018-02-07T08:03:57.863Z,29.77
2018-02-07T08:06:24.134Z,31.77
2018-02-07T08:08:51.164Z,31.73
2018-02-07T08:11:17.442Z,32.05
2018-02-07T08:13:43.710Z,30.35
2018-02-07T08:16:10.009Z,36.20
2018-02-07T08:18:36.279Z,33.85
2018-02-07T08:21:02.576Z,33.35
2018-02-07T08:23:28.854Z,33.97
2018-02-07T08:25:55.155Z,33.80
2018-02-07T08:28:21.458Z,33.92
2018-02-07T08:30:47.729Z,33.10
2018-02-07T08:33:14.007Z,37.08
2018-02-07T08:35:42.043Z,37.40
2018-02-07T08:38:08.314Z,34.60
2018-02-07T08:40:35.358Z,39.08
2018-02-07T08:43:01.679Z,31.98
2018-02-07T08:45:27.938Z,33.78
2018-02-07T08:47:54.951Z,40.00
2018-02-07T08:50:21.242Z,35.85
2018-02-07T08:52:47.534Z,34.10
2018-02-07T08:55:14.562Z,35.15
2018-02-07T08:57:40.849Z,34.85
2018-02-07T09:00:07.155Z,33.90
2018-02-07T09:02:34.170Z,33.80
2018-02-07T09:05:00.466Z,33.45
2018-02-07T09:07:26.754Z,33.13
2018-02-07T09:09:53.787Z,28.08
2018-02-07T09:12:20.834Z,29.00
2018-02-07T09:14:47.851Z,31.35
2018-02-07T09:17:14.191Z,32.15
2018-02-07T09:19:40.462Z,32.75
2018-02-07T09:22:07.486Z,31.73
2018-02-07T09:24:33.771Z,32.55
2018-02-07T09:27:00.107Z,32.75
2018-02-07T09:29:26.403Z,29.25
2018-02-07T09:31:52.683Z,31.08
2018-02-07T09:34:18.962Z,34.28
2018-02-07T09:36:45.983Z,34.15
2018-02-07T09:39:12.262Z,31.60
2018-02-07T09:41:38.563Z,30.90
2018-02-07T09:44:05.606Z,37.28
2018-02-07T09:46:32.622Z,32.83
2018-02-07T09:48:58.906Z,32.63
2018-02-07T09:51:25.191Z,32.42
2018-02-07T09:53:51.504Z,34.33
2018-02-07T09:56:17.782Z,33.08
2018-02-07T09:58:44.062Z,35.40
2018-02-07T10:01:10.338Z,33.50
2018-02-07T10:03:37.370Z,31.20
2018-02-07T10:06:04.406Z,32.67
2018-02-07T10:08:30.719Z,31.35
2018-02-07T10:10:57.110Z,33.00
2018-02-07T10:13:23.399Z,33.60
2018-02-07T10:15:49.678Z,31.37
2018-02-07T10:18:16.019Z,35.50
2018-02-07T10:20:42.299Z,33.85
2018-02-07T10:23:09.318Z,34.78
2018-02-07T10:25:35.600Z,29.63
2018-02-07T10:28:01.875Z,33.17
2018-02-07T10:30:28.178Z,32.95
2018-02-07T10:32:54.486Z,36.50
2018-02-07T10:35:20.762Z,33.97
2018-02-07T10:37:47.035Z,34.80
2018-02-07T10:40:14.059Z,32.63
2018-02-07T10:42:40.354Z,35.88
2018-02-07T10:45:06.635Z,35.63
2018-02-07T10:47:34.900Z,36.15
2018-02-07T10:50:01.173Z,36.35
2018-02-07T10:52:27.447Z,35.53
2018-02-07T10:54:53.746Z,37.03
2018-02-07T10:57:20.023Z,37.88
2018-02-07T10:59:47.053Z,37.92
2018-02-07T11:02:14.350Z,36.67
2018-02-07T11:04:41.643Z,36.88
2018-02-07T11:07:07.990Z,36.33
2018-02-07T11:09:34.300Z,39.42
2018-02-07T11:12:00.587Z,35.13
2018-02-07T11:14:27.602Z,38.17
2018-02-07T11:16:53.874Z,39.47
2018-02-07T11:19:20.173Z,41.60
2018-02-07T11:21:46.447Z,40.53
2018-02-07T11:24:12.723Z,41.25
2018-02-07T11:26:39.027Z,36.17
2018-02-07T11:29:05.344Z,38.55
2018-02-07T11:31:31.637Z,36.67
2018-02-07T11:33:58.670Z,39.40
2018-02-07T11:36:25.022Z,37.05
2018-02-07T11:38:51.304Z,36.35
2018-02-07T11:41:17.579Z,33.40
2018-02-07T11:43:44.615Z,39.22
2018-02-07T11:46:12.242Z,41.60
2018-02-07T11:48:38.514Z,42.22
2018-02-07T11:51:05.911Z,41.90
2018-02-07T11:53:32.198Z,39.90
2018-02-07T11:55:59.253Z,40.05
2018-02-07T11:58:25.535Z,39.15
2018-02-07T12:00:51.822Z,38.30
2018-02-07T12:03:18.099Z,40.08
2018-02-07T12:05:44.378Z,39.70
2018-02-07T12:08:11.726Z,33.85
2018-02-07T12:10:38.007Z,34.55
2018-02-07T12:13:04.282Z,36.05
2018-02-07T12:15:31.294Z,37.78
2018-02-07T12:17:57.584Z,33.85
2018-02-07T12:20:23.886Z,37.03
2018-02-07T12:22:50.902Z,36.95
2018-02-07T12:25:17.205Z,37.67
2018-02-07T12:27:43.479Z,36.67
2018-02-07T12:30:10.506Z,35.50
2018-02-07T12:32:36.787Z,38.88
2018-02-07T12:35:03.091Z,34.25
2018-02-07T12:37:30.124Z,35.83
2018-02-07T12:39:56.427Z,35.65
2018-02-07T12:42:22.731Z,31.48
2018-02-07T12:44:49.013Z,33.60
2018-02-07T12:47:15.302Z,34.97
2018-02-07T12:49:42.716Z,34.90
2018-02-07T12:52:09.038Z,35.42
2018-02-07T12:54:35.546Z,34.38
2018-02-07T12:57:02.067Z,36.20
2018-02-07T12:59:28.406Z,37.58
2018-02-07T13:01:55.438Z,34.83
2018-02-07T13:04:22.450Z,35.80
2018-02-07T13:06:48.783Z,34.78
2018-02-07T13:09:16.878Z,35.97
2018-02-07T13:11:44.179Z,36.17
2018-02-07T13:14:11.752Z,39.78
2018-02-07T13:16:38.034Z,34.80
2018-02-07T13:19:05.039Z,37.95
2018-02-07T13:21:31.318Z,37.70
2018-02-07T13:23:58.338Z,35.15
2018-02-07T13:26:24.639Z,38.30
2018-02-07T13:28:51.930Z,33.75
2018-02-07T13:31:18.230Z,33.40
2018-02-07T13:33:44.511Z,35.65
2018-02-07T13:36:11.534Z,37.67
2018-02-07T13:38:38.608Z,33.10
2018-02-07T13:41:05.626Z,34.70
2018-02-07T13:43:32.959Z,37.60
2018-02-07T13:45:59.242Z,35.80
2018-02-07T13:48:25.563Z,34.35
2018-02-07T13:50:52.627Z,35.50
2018-02-07T13:53:18.914Z,39.22
2018-02-07T13:55:47.742Z,35.78
2018-02-07T13:58:15.146Z,37.90
2018-02-07T14:00:47.718Z,34.38
2018-02-07T14:03:14.065Z,35.17
2018-02-07T14:05:40.349Z,36.13
2018-02-07T14:08:06.621Z,39.05
2018-02-07T14:10:32.899Z,35.75
2018-02-07T14:12:59.944Z,34.58
2018-02-07T14:15:26.954Z,32.38
2018-02-07T14:17:53.248Z,32.33
2018-02-07T14:20:19.527Z,40.10
2018-02-07T14:22:45.860Z,38.75
2018-02-07T14:25:12.908Z,39.95
2018-02-07T14:27:40.203Z,37.75
2018-02-07T14:30:06.479Z,34.55
2018-02-07T14:32:32.790Z,35.58
2018-02-07T14:34:59.069Z,36.90
2018-02-07T14:37:26.115Z,34.38
2018-02-07T14:39:53.155Z,34.55
2018-02-07T14:42:20.175Z,36.28
2018-02-07T14:44:46.457Z,34.80
2018-02-07T14:47:12.786Z,32.70
2018-02-07T14:49:39.090Z,35.60
2018-02-07T14:52:06.102Z,29.95
2018-02-07T14:54:32.374Z,29.65
2018-02-07T14:56:59.407Z,31.42
2018-02-07T14:59:26.449Z,31.85
2018-02-07T15:01:52.747Z,33.80
2018-02-07T15:04:19.019Z,32.15
2018-02-07T15:06:46.031Z,33.75
2018-02-07T15:09:12.318Z,31.52
2018-02-07T15:11:38.608Z,30.85
2018-02-07T15:14:05.644Z,31.73
2018-02-07T15:16:31.935Z,28.87
2018-02-07T15:18:58.225Z,30.45
2018-02-07T15:21:27.030Z,29.73
2018-02-07T15:23:54.059Z,27.25
2018-02-07T15:26:20.702Z,26.23
2018-02-07T15:28:47.730Z,32.17
2018-02-07T15:31:14.016Z,29.15
2018-02-07T15:33:40.328Z,30.65
2018-02-07T15:36:07.346Z,29.63
2018-02-07T15:38:33.761Z,29.48
2018-02-07T15:41:00.052Z,30.00
2018-02-07T15:43:26.374Z,33.17
2018-02-07T15:45:52.680Z,31.48
2018-02-07T15:48:18.955Z,30.00
2018-02-07T15:50:45.266Z,31.10
2018-02-07T15:53:11.699Z,30.65
2018-02-07T15:55:38.003Z,29.90
2018-02-07T15:58:05.039Z,31.33
2018-02-07T16:00:31.342Z,30.90
2018-02-07T16:02:57.660Z,30.60
2018-02-07T16:05:23.938Z,31.62
2018-02-07T16:07:51.444Z,30.12
2018-02-07T16:10:17.781Z,30.98
2018-02-07T16:12:44.071Z,29.05
2018-02-07T16:15:11.117Z,29.95
2018-02-07T16:17:38.122Z,27.08
2018-02-07T16:20:06.068Z,26.83
2018-02-07T16:22:32.397Z,34.83
2018-02-07T16:24:58.718Z,27.90
2018-02-07T16:27:25.021Z,29.92
2018-02-07T16:29:52.050Z,30.35
2018-02-07T16:32:18.382Z,28.52
2018-02-07T16:34:44.671Z,27.33
2018-02-07T16:37:10.950Z,30.48
2018-02-07T16:39:37.996Z,30.62
2018-02-07T16:42:04.322Z,27.45
2018-02-07T16:44:30.660Z,28.35
2018-02-07T16:46:57.070Z,28.55
2018-02-07T16:49:23.364Z,28.48
2018-02-07T16:51:49.698Z,30.08
2018-02-07T16:54:16.018Z,29.30
2018-02-07T16:56:42.324Z,27.25
2018-02-07T16:59:08.634Z,29.75
2018-02-07T17:01:35.023Z,27.87
2018-02-07T17:04:01.359Z,27.55
2018-02-07T17:06:27.687Z,28.52
2018-02-07T17:08:53.976Z,27.65
2018-02-07T17:11:21.020Z,30.52
2018-02-07T17:13:48.071Z,27.75
2018-02-07T17:16:15.136Z,27.23
2018-02-07T17:18:41.442Z,26.98
2018-02-07T17:21:08.517Z,29.08
2018-02-07T17:23:34.843Z,28.52
2018-02-07T17:26:01.915Z,28.48
2018-02-07T17:28:28.230Z,29.42
2018-02-07T17:30:54.547Z,31.15
2018-02-07T17:33:21.654Z,28.55
2018-02-07T17:35:48.001Z,29.73
2018-02-07T17:38:14.322Z,27.80
2018-02-07T17:40:40.663Z,28.25
2018-02-07T17:43:08.115Z,31.58
2018-02-07T17:45:34.437Z,28.50
2018-02-07T17:48:00.779Z,29.33
2018-02-07T17:50:27.076Z,31.52
2018-02-07T17:52:53.398Z,30.02
2018-02-07T17:55:19.715Z,32.63
2018-02-07T17:57:46.002Z,28.83
2018-02-07T18:00:13.217Z,29.40
2018-02-07T18:02:39.501Z,30.48
2018-02-07T18:05:06.546Z,33.38
2018-02-07T18:07:33.583Z,30.30
2018-02-07T18:09:59.863Z,31.10
2018-02-07T18:12:26.150Z,27.87
2018-02-07T18:14:53.173Z,33.55
2018-02-07T18:17:19.474Z,29.98
2018-02-07T18:19:45.758Z,30.50
2018-02-07T18:22:13.678Z,29.85
2018-02-07T18:24:40.202Z,31.90
2018-02-07T18:27:06.634Z,31.80
2018-02-07T18:29:33.011Z,35.25
2018-02-07T18:31:59.294Z,37.28
2018-02-07T18:34:26.666Z,38.65
2018-02-07T18:36:53.013Z,32.22
2018-02-07T18:39:20.114Z,33.30
2018-02-07T18:41:47.483Z,32.80
2018-02-07T18:44:13.874Z,28.58
2018-02-07T18:46:40.179Z,29.67
2018-02-07T18:49:06.498Z,30.20
2018-02-07T18:51:32.787Z,30.20
2018-02-07T18:53:59.095Z,27.95
2018-02-07T18:56:26.126Z,31.45
2018-02-07T18:58:52.431Z,30.20
2018-02-07T19:01:18.741Z,30.55
2018-02-07T19:03:45.026Z,27.48
2018-02-07T19:06:11.321Z,27.35
2018-02-07T19:08:37.670Z,29.48
2018-02-07T19:11:04.583Z,33.35
2018-02-07T19:13:31.648Z,34.30
2018-02-07T19:15:58.004Z,45.65
2018-02-07T19:18:24.512Z,33.80
2018-02-07T19:20:51.666Z,45.92
2018-02-07T19:23:17.994Z,35.75
2018-02-07T19:25:44.302Z,32.38
2018-02-07T19:28:10.758Z,31.30
2018-02-07T19:30:37.115Z,30.95
2018-02-07T19:33:03.602Z,30.65
2018-02-07T19:35:29.895Z,32.42
2018-02-07T19:37:56.928Z,31.00
2018-02-07T19:40:23.467Z,32.60
2018-02-07T19:42:49.803Z,28.10
2018-02-07T19:45:16.087Z,32.08
2018-02-07T19:47:42.379Z,33.20
2018-02-07T19:50:09.410Z,30.23
2018-02-07T19:52:35.738Z,31.37
2018-02-07T19:55:02.028Z,32.10
2018-02-07T19:57:28.318Z,30.33
2018-02-07T19:59:55.338Z,29.55
2018-02-07T20:02:21.623Z,31.08
2018-02-07T20:04:47.983Z,29.42
2018-02-07T20:07:14.400Z,31.45
2018-02-07T20:09:40.706Z,30.30
2018-02-07T20:12:06.994Z,30.90
2018-02-07T20:14:33.286Z,30.20
2018-02-07T20:16:59.672Z,31.10
2018-02-07T20:19:26.694Z,31.45
2018-02-07T20:21:52.984Z,30.95
2018-02-07T20:24:19.259Z,30.12
2018-02-07T20:26:45.567Z,30.10
2018-02-07T20:29:11.862Z,31.70
2018-02-07T20:31:38.166Z,31.27
2018-02-07T20:34:05.205Z,31.30
2018-02-07T20:36:32.234Z,34.65
2018-02-07T20:38:58.536Z,32.13
2018-02-07T20:41:25.342Z,30.50
2018-02-07T20:43:52.362Z,32.20
2018-02-07T20:46:18.650Z,31.45
2018-02-07T20:48:44.967Z,33.30
2018-02-07T20:51:11.251Z,30.92
2018-02-07T20:53:37.566Z,32.00
2018-02-07T20:56:03.846Z,33.33
2018-02-07T20:58:31.879Z,29.92
2018-02-07T21:00:58.198Z,32.00
2018-02-07T21:03:24.503Z,30.35
2018-02-07T21:05:50.806Z,32.13
2018-02-07T21:08:17.847Z,30.58
2018-02-07T21:10:44.931Z,31.20
2018-02-07T21:13:11.206Z,32.03
2018-02-07T21:15:37.491Z,33.60
2018-02-07T21:18:03.798Z,31.92
2018-02-07T21:20:30.100Z,31.65
2018-02-07T21:22:57.160Z,30.98
2018-02-07T21:25:24.193Z,32.65
2018-02-07T21:27:51.483Z,32.50
2018-02-07T21:30:17.804Z,32.13
2018-02-07T21:32:44.081Z,31.60
2018-02-07T21:35:10.359Z,32.17
2018-02-07T21:37:37.403Z,34.33
2018-02-07T21:40:04.438Z,32.92
2018-02-07T21:42:31.497Z,31.02
2018-02-07T21:44:58.560Z,37.38
2018-02-07T21:47:24.850Z,33.50
2018-02-07T21:49:51.155Z,37.72
2018-02-07T21:52:17.475Z,34.60
2018-02-07T21:54:43.791Z,35.00
2018-02-07T21:57:10.074Z,34.63
2018-02-07T21:59:36.358Z,48.90
2018-02-07T22:02:02.661Z,40.20
2018-02-07T22:04:28.959Z,32.45
2018-02-07T22:06:55.276Z,48.45
2018-02-07T22:09:21.554Z,35.28
2018-02-07T22:11:47.822Z,35.20
2018-02-07T22:14:14.138Z,38.60
2018-02-07T22:16:40.407Z,41.67
2018-02-07T22:19:07.466Z,41.13
2018-02-07T22:21:34.494Z,35.10
2018-02-07T22:24:04.270Z,50.75
2018-02-07T22:26:30.579Z,37.40
2018-02-07T22:28:56.863Z,33.63
2018-02-07T22:31:23.154Z,36.95
2018-02-07T22:33:49.443Z,35.65
2018-02-07T22:36:15.846Z,37.70
2018-02-07T22:38:42.127Z,38.38
2018-02-07T22:41:09.178Z,36.90
2018-02-07T22:43:36.231Z,38.78
2018-02-07T22:46:02.568Z,33.05
2018-02-07T22:48:29.613Z,32.72
2018-02-07T22:50:55.894Z,33.97
2018-02-07T22:53:22.219Z,37.53
2018-02-07T22:55:48.531Z,39.05
2018-02-07T22:58:15.562Z,37.65
2018-02-07T23:00:42.602Z,33.10
2018-02-07T23:03:08.927Z,41.25
2018-02-07T23:05:35.212Z,33.92
2018-02-07T23:08:01.514Z,34.40
2018-02-07T23:10:28.559Z,34.95
2018-02-07T23:12:55.587Z,35.85
2018-02-07T23:15:22.629Z,32.05
2018-02-07T23:17:48.925Z,33.63
2018-02-07T23:20:15.230Z,35.90
2018-02-07T23:22:44.046Z,36.33
2018-02-07T23:25:15.223Z,35.47
2018-02-07T23:27:41.507Z,37.17
2018-02-07T23:30:07.814Z,38.90
2018-02-07T23:32:34.849Z,35.20
2018-02-07T23:35:02.195Z,36.00
2018-02-07T23:37:28.518Z,35.15
2018-02-07T23:39:54.802Z,35.35
2018-02-07T23:42:21.079Z,43.08
2018-02-07T23:44:47.362Z,37.65
2018-02-07T23:47:13.651Z,34.80
2018-02-07T23:49:39.986Z,40.33
2018-02-07T23:52:06.255Z,35.50
2018-02-07T23:54:32.529Z,37.30
2018-02-07T23:56:58.835Z,34.92
2018-02-07T23:59:25.130Z,36.00
